sensor_id;sensor_type;location;lat;lon;timestamp;temperature;humidity
42099;DHT22;27758;55.900;8.516;2023-04-25T00:00:52;7.10;99.90
42099;DHT22;27758;55.900;8.516;2023-04-25T00:03:18;7.10;99.90
42099;DHT22;27758;55.900;8.516;2023-04-25T00:05:45;7.10;99.90
42099;DHT22;27758;55.900;8.516;2023-04-25T00:08:11;7.10;99.90
42099;DHT22;27758;55.900;8.516;2023-04-25T00:10:36;7.00;99.90
42099;DHT22;27758;55.900;8.516;2023-04-25T00:13:02;7.00;99.90
42099;DHT22;27758;55.900;8.516;2023-04-25T00:15:28;7.00;99.90
42099;DHT22;27758;55.900;8.516;2023-04-25T00:17:56;7.00;99.90
42099;DHT22;27758;55.900;8.516;2023-04-25T00:20:22;7.00;99.90
42099;DHT22;27758;55.900;8.516;2023-04-25T00:22:49;7.00;99.90
42099;DHT22;27758;55.900;8.516;2023-04-25T00:25:15;7.00;99.90
42099;DHT22;27758;55.900;8.516;2023-04-25T00:27:40;7.00;99.90
42099;DHT22;27758;55.900;8.516;2023-04-25T00:30:07;7.00;99.90
42099;DHT22;27758;55.900;8.516;2023-04-25T00:32:33;7.00;99.90
42099;DHT22;27758;55.900;8.516;2023-04-25T00:34:59;7.00;99.90
42099;DHT22;27758;55.900;8.516;2023-04-25T00:37:25;7.00;99.90
42099;DHT22;27758;55.900;8.516;2023-04-25T00:39:51;7.00;99.90
42099;DHT22;27758;55.900;8.516;2023-04-25T00:42:19;7.00;99.90
42099;DHT22;27758;55.900;8.516;2023-04-25T00:44:45;7.00;99.90
42099;DHT22;27758;55.900;8.516;2023-04-25T00:47:11;7.00;99.90
42099;DHT22;27758;55.900;8.516;2023-04-25T00:49:36;7.00;99.90
42099;DHT22;27758;55.900;8.516;2023-04-25T00:52:02;7.00;99.90
42099;DHT22;27758;55.900;8.516;2023-04-25T00:54:28;6.90;99.90
42099;DHT22;27758;55.900;8.516;2023-04-25T00:56:55;6.90;99.90
42099;DHT22;27758;55.900;8.516;2023-04-25T00:59:21;6.90;99.90
42099;DHT22;27758;55.900;8.516;2023-04-25T01:01:47;7.00;99.90
42099;DHT22;27758;55.900;8.516;2023-04-25T01:04:13;7.00;99.90
42099;DHT22;27758;55.900;8.516;2023-04-25T01:06:40;7.00;99.90
42099;DHT22;27758;55.900;8.516;2023-04-25T01:09:05;7.00;99.90
42099;DHT22;27758;55.900;8.516;2023-04-25T01:11:32;7.00;99.90
42099;DHT22;27758;55.900;8.516;2023-04-25T01:13:58;7.00;99.90
42099;DHT22;27758;55.900;8.516;2023-04-25T01:16:24;7.00;99.90
42099;DHT22;27758;55.900;8.516;2023-04-25T01:18:50;6.90;99.90
42099;DHT22;27758;55.900;8.516;2023-04-25T01:21:16;7.00;99.90
42099;DHT22;27758;55.900;8.516;2023-04-25T01:23:42;6.90;99.90
42099;DHT22;27758;55.900;8.516;2023-04-25T01:26:09;6.90;99.90
42099;DHT22;27758;55.900;8.516;2023-04-25T01:28:36;6.90;99.90
42099;DHT22;27758;55.900;8.516;2023-04-25T01:31:03;6.90;99.90
42099;DHT22;27758;55.900;8.516;2023-04-25T01:33:29;6.90;99.90
42099;DHT22;27758;55.900;8.516;2023-04-25T01:35:55;6.90;99.90
42099;DHT22;27758;55.900;8.516;2023-04-25T01:38:21;6.90;99.90
42099;DHT22;27758;55.900;8.516;2023-04-25T01:40:49;6.90;99.90
42099;DHT22;27758;55.900;8.516;2023-04-25T01:43:16;6.90;99.90
42099;DHT22;27758;55.900;8.516;2023-04-25T01:45:42;6.90;99.90
42099;DHT22;27758;55.900;8.516;2023-04-25T01:48:09;6.90;99.90
42099;DHT22;27758;55.900;8.516;2023-04-25T01:50:36;6.80;99.90
42099;DHT22;27758;55.900;8.516;2023-04-25T01:53:02;6.80;99.90
42099;DHT22;27758;55.900;8.516;2023-04-25T01:55:28;6.80;99.90
42099;DHT22;27758;55.900;8.516;2023-04-25T01:57:54;6.80;99.90
42099;DHT22;27758;55.900;8.516;2023-04-25T02:00:19;6.80;99.90
42099;DHT22;27758;55.900;8.516;2023-04-25T02:02:46;6.90;99.90
42099;DHT22;27758;55.900;8.516;2023-04-25T02:05:11;6.80;99.90
42099;DHT22;27758;55.900;8.516;2023-04-25T02:07:37;6.80;99.90
42099;DHT22;27758;55.900;8.516;2023-04-25T02:10:03;6.80;99.90
42099;DHT22;27758;55.900;8.516;2023-04-25T02:12:30;6.80;99.90
42099;DHT22;27758;55.900;8.516;2023-04-25T02:14:56;6.80;99.90
42099;DHT22;27758;55.900;8.516;2023-04-25T02:17:22;6.80;99.90
42099;DHT22;27758;55.900;8.516;2023-04-25T02:19:47;6.80;99.90
42099;DHT22;27758;55.900;8.516;2023-04-25T02:22:13;6.80;99.90
42099;DHT22;27758;55.900;8.516;2023-04-25T02:24:39;6.80;99.90
42099;DHT22;27758;55.900;8.516;2023-04-25T02:27:05;6.80;99.90
42099;DHT22;27758;55.900;8.516;2023-04-25T02:29:31;6.70;99.90
42099;DHT22;27758;55.900;8.516;2023-04-25T02:31:57;6.70;99.90
42099;DHT22;27758;55.900;8.516;2023-04-25T02:34:22;6.70;99.90
42099;DHT22;27758;55.900;8.516;2023-04-25T02:36:49;6.70;99.90
42099;DHT22;27758;55.900;8.516;2023-04-25T02:39:17;6.70;99.90
42099;DHT22;27758;55.900;8.516;2023-04-25T02:41:43;6.70;99.90
42099;DHT22;27758;55.900;8.516;2023-04-25T02:44:09;6.70;99.90
42099;DHT22;27758;55.900;8.516;2023-04-25T02:46:35;6.70;99.90
42099;DHT22;27758;55.900;8.516;2023-04-25T02:49:00;6.60;99.90
42099;DHT22;27758;55.900;8.516;2023-04-25T02:51:26;6.70;99.90
42099;DHT22;27758;55.900;8.516;2023-04-25T02:53:52;6.70;99.90
42099;DHT22;27758;55.900;8.516;2023-04-25T02:56:17;6.70;99.90
42099;DHT22;27758;55.900;8.516;2023-04-25T02:58:43;6.60;99.90
42099;DHT22;27758;55.900;8.516;2023-04-25T03:01:09;6.60;99.90
42099;DHT22;27758;55.900;8.516;2023-04-25T03:03:35;6.60;99.90
42099;DHT22;27758;55.900;8.516;2023-04-25T03:06:01;6.60;99.90
42099;DHT22;27758;55.900;8.516;2023-04-25T03:08:26;6.60;99.90
42099;DHT22;27758;55.900;8.516;2023-04-25T03:10:58;6.60;99.90
42099;DHT22;27758;55.900;8.516;2023-04-25T03:13:24;6.50;99.90
42099;DHT22;27758;55.900;8.516;2023-04-25T03:15:50;6.50;99.90
42099;DHT22;27758;55.900;8.516;2023-04-25T03:18:15;6.50;99.90
42099;DHT22;27758;55.900;8.516;2023-04-25T03:20:41;6.50;99.90
42099;DHT22;27758;55.900;8.516;2023-04-25T03:23:07;6.50;99.90
42099;DHT22;27758;55.900;8.516;2023-04-25T03:25:33;6.50;99.90
42099;DHT22;27758;55.900;8.516;2023-04-25T03:27:59;6.50;99.90
42099;DHT22;27758;55.900;8.516;2023-04-25T03:30:24;6.50;99.90
42099;DHT22;27758;55.900;8.516;2023-04-25T03:32:50;6.50;99.90
42099;DHT22;27758;55.900;8.516;2023-04-25T03:35:16;6.40;99.90
42099;DHT22;27758;55.900;8.516;2023-04-25T03:37:41;6.40;99.90
42099;DHT22;27758;55.900;8.516;2023-04-25T03:40:11;6.40;99.90
42099;DHT22;27758;55.900;8.516;2023-04-25T03:42:37;6.40;99.90
42099;DHT22;27758;55.900;8.516;2023-04-25T03:45:03;6.40;99.90
42099;DHT22;27758;55.900;8.516;2023-04-25T03:47:29;6.40;99.90
42099;DHT22;27758;55.900;8.516;2023-04-25T03:49:54;6.40;99.90
42099;DHT22;27758;55.900;8.516;2023-04-25T03:52:20;6.30;99.90
42099;DHT22;27758;55.900;8.516;2023-04-25T03:54:46;6.30;99.90
42099;DHT22;27758;55.900;8.516;2023-04-25T03:57:12;6.20;99.90
42099;DHT22;27758;55.900;8.516;2023-04-25T03:59:37;6.20;99.90
42099;DHT22;27758;55.900;8.516;2023-04-25T04:02:03;6.20;99.90
42099;DHT22;27758;55.900;8.516;2023-04-25T04:04:29;6.10;99.90
42099;DHT22;27758;55.900;8.516;2023-04-25T04:06:55;6.10;99.90
42099;DHT22;27758;55.900;8.516;2023-04-25T04:09:21;6.10;99.90
42099;DHT22;27758;55.900;8.516;2023-04-25T04:11:47;6.10;99.90
42099;DHT22;27758;55.900;8.516;2023-04-25T04:14:12;6.10;99.90
42099;DHT22;27758;55.900;8.516;2023-04-25T04:16:38;6.20;99.90
42099;DHT22;27758;55.900;8.516;2023-04-25T04:19:04;6.20;99.90
42099;DHT22;27758;55.900;8.516;2023-04-25T04:21:29;6.30;99.90
42099;DHT22;27758;55.900;8.516;2023-04-25T04:23:55;6.30;99.90
42099;DHT22;27758;55.900;8.516;2023-04-25T04:26:23;6.30;99.90
42099;DHT22;27758;55.900;8.516;2023-04-25T04:28:50;6.40;99.90
42099;DHT22;27758;55.900;8.516;2023-04-25T04:31:16;6.40;99.90
42099;DHT22;27758;55.900;8.516;2023-04-25T04:33:45;6.40;99.90
42099;DHT22;27758;55.900;8.516;2023-04-25T04:36:11;6.40;99.90
42099;DHT22;27758;55.900;8.516;2023-04-25T04:38:37;6.50;99.90
42099;DHT22;27758;55.900;8.516;2023-04-25T04:41:03;6.50;99.90
42099;DHT22;27758;55.900;8.516;2023-04-25T04:43:29;6.40;99.90
42099;DHT22;27758;55.900;8.516;2023-04-25T04:45:55;6.50;99.90
42099;DHT22;27758;55.900;8.516;2023-04-25T04:48:24;6.50;99.90
42099;DHT22;27758;55.900;8.516;2023-04-25T04:50:50;6.50;99.90
42099;DHT22;27758;55.900;8.516;2023-04-25T04:53:15;6.40;99.90
42099;DHT22;27758;55.900;8.516;2023-04-25T04:55:41;6.30;99.90
42099;DHT22;27758;55.900;8.516;2023-04-25T04:58:08;6.30;99.90
42099;DHT22;27758;55.900;8.516;2023-04-25T05:00:33;6.40;99.90
42099;DHT22;27758;55.900;8.516;2023-04-25T05:02:59;6.40;99.90
42099;DHT22;27758;55.900;8.516;2023-04-25T05:05:25;6.50;99.90
42099;DHT22;27758;55.900;8.516;2023-04-25T05:07:51;6.40;99.90
42099;DHT22;27758;55.900;8.516;2023-04-25T05:10:18;6.40;99.90
42099;DHT22;27758;55.900;8.516;2023-04-25T05:12:43;6.40;99.90
42099;DHT22;27758;55.900;8.516;2023-04-25T05:15:10;6.50;99.90
42099;DHT22;27758;55.900;8.516;2023-04-25T05:17:35;6.50;99.90
42099;DHT22;27758;55.900;8.516;2023-04-25T05:20:01;6.50;99.90
42099;DHT22;27758;55.900;8.516;2023-04-25T05:22:27;6.50;99.90
42099;DHT22;27758;55.900;8.516;2023-04-25T05:24:53;6.30;99.90
42099;DHT22;27758;55.900;8.516;2023-04-25T05:27:19;6.20;99.90
42099;DHT22;27758;55.900;8.516;2023-04-25T05:29:45;6.00;99.90
42099;DHT22;27758;55.900;8.516;2023-04-25T05:32:10;6.00;99.90
42099;DHT22;27758;55.900;8.516;2023-04-25T05:34:36;5.90;99.90
42099;DHT22;27758;55.900;8.516;2023-04-25T05:37:02;5.80;99.90
42099;DHT22;27758;55.900;8.516;2023-04-25T05:39:28;5.80;99.90
42099;DHT22;27758;55.900;8.516;2023-04-25T05:41:54;5.80;99.90
42099;DHT22;27758;55.900;8.516;2023-04-25T05:44:20;5.80;99.90
42099;DHT22;27758;55.900;8.516;2023-04-25T05:46:49;5.90;99.90
42099;DHT22;27758;55.900;8.516;2023-04-25T05:49:15;5.90;99.90
42099;DHT22;27758;55.900;8.516;2023-04-25T05:51:40;6.00;99.90
42099;DHT22;27758;55.900;8.516;2023-04-25T05:54:06;6.10;99.90
42099;DHT22;27758;55.900;8.516;2023-04-25T05:56:32;6.20;99.90
42099;DHT22;27758;55.900;8.516;2023-04-25T05:58:57;6.30;99.90
42099;DHT22;27758;55.900;8.516;2023-04-25T06:01:23;6.50;99.90
42099;DHT22;27758;55.900;8.516;2023-04-25T06:03:49;6.50;99.90
42099;DHT22;27758;55.900;8.516;2023-04-25T06:06:16;6.60;99.90
42099;DHT22;27758;55.900;8.516;2023-04-25T06:08:42;6.60;99.90
42099;DHT22;27758;55.900;8.516;2023-04-25T06:11:08;6.50;99.90
42099;DHT22;27758;55.900;8.516;2023-04-25T06:13:33;6.40;99.90
42099;DHT22;27758;55.900;8.516;2023-04-25T06:15:59;6.40;99.90
42099;DHT22;27758;55.900;8.516;2023-04-25T06:18:25;6.50;99.90
42099;DHT22;27758;55.900;8.516;2023-04-25T06:20:51;6.60;99.90
42099;DHT22;27758;55.900;8.516;2023-04-25T06:23:17;6.70;99.90
42099;DHT22;27758;55.900;8.516;2023-04-25T06:25:42;6.70;99.90
42099;DHT22;27758;55.900;8.516;2023-04-25T06:28:08;6.70;99.90
42099;DHT22;27758;55.900;8.516;2023-04-25T06:30:34;6.70;99.90
42099;DHT22;27758;55.900;8.516;2023-04-25T06:32:59;6.70;99.90
42099;DHT22;27758;55.900;8.516;2023-04-25T06:35:25;6.70;99.90
42099;DHT22;27758;55.900;8.516;2023-04-25T06:37:51;6.70;99.90
42099;DHT22;27758;55.900;8.516;2023-04-25T06:40:16;6.70;99.90
42099;DHT22;27758;55.900;8.516;2023-04-25T06:42:43;6.70;99.90
42099;DHT22;27758;55.900;8.516;2023-04-25T06:45:09;6.80;99.90
42099;DHT22;27758;55.900;8.516;2023-04-25T06:47:34;6.90;99.90
42099;DHT22;27758;55.900;8.516;2023-04-25T06:50:00;6.80;99.90
42099;DHT22;27758;55.900;8.516;2023-04-25T06:52:26;6.60;99.90
42099;DHT22;27758;55.900;8.516;2023-04-25T06:54:54;6.50;99.90
42099;DHT22;27758;55.900;8.516;2023-04-25T06:57:19;6.50;99.90
42099;DHT22;27758;55.900;8.516;2023-04-25T06:59:45;6.50;99.90
42099;DHT22;27758;55.900;8.516;2023-04-25T07:02:11;6.70;99.90
42099;DHT22;27758;55.900;8.516;2023-04-25T07:04:36;6.80;99.90
42099;DHT22;27758;55.900;8.516;2023-04-25T07:07:02;7.20;99.90
42099;DHT22;27758;55.900;8.516;2023-04-25T07:09:29;7.70;99.90
42099;DHT22;27758;55.900;8.516;2023-04-25T07:11:55;7.90;99.90
42099;DHT22;27758;55.900;8.516;2023-04-25T07:14:22;7.90;99.90
42099;DHT22;27758;55.900;8.516;2023-04-25T07:16:47;7.50;99.90
42099;DHT22;27758;55.900;8.516;2023-04-25T07:19:13;7.30;99.90
42099;DHT22;27758;55.900;8.516;2023-04-25T07:21:39;7.20;99.90
42099;DHT22;27758;55.900;8.516;2023-04-25T07:24:05;7.20;99.90
42099;DHT22;27758;55.900;8.516;2023-04-25T07:26:31;7.20;99.90
42099;DHT22;27758;55.900;8.516;2023-04-25T07:28:56;7.30;99.90
42099;DHT22;27758;55.900;8.516;2023-04-25T07:31:22;7.30;99.90
42099;DHT22;27758;55.900;8.516;2023-04-25T07:33:48;7.40;99.90
42099;DHT22;27758;55.900;8.516;2023-04-25T07:36:14;7.40;99.90
42099;DHT22;27758;55.900;8.516;2023-04-25T07:38:41;7.30;99.90
42099;DHT22;27758;55.900;8.516;2023-04-25T07:41:06;7.30;99.90
42099;DHT22;27758;55.900;8.516;2023-04-25T07:43:37;7.30;99.90
42099;DHT22;27758;55.900;8.516;2023-04-25T07:46:02;7.40;99.90
42099;DHT22;27758;55.900;8.516;2023-04-25T07:48:28;7.20;99.90
42099;DHT22;27758;55.900;8.516;2023-04-25T07:50:54;7.00;99.90
42099;DHT22;27758;55.900;8.516;2023-04-25T07:53:19;6.80;99.90
42099;DHT22;27758;55.900;8.516;2023-04-25T07:55:45;6.70;99.90
42099;DHT22;27758;55.900;8.516;2023-04-25T07:58:11;6.80;99.90
42099;DHT22;27758;55.900;8.516;2023-04-25T08:00:37;6.90;99.90
42099;DHT22;27758;55.900;8.516;2023-04-25T08:03:03;6.80;99.90
42099;DHT22;27758;55.900;8.516;2023-04-25T08:05:29;6.80;99.90
42099;DHT22;27758;55.900;8.516;2023-04-25T08:07:55;6.90;99.90
42099;DHT22;27758;55.900;8.516;2023-04-25T08:10:22;6.90;99.90
42099;DHT22;27758;55.900;8.516;2023-04-25T08:12:48;7.20;99.90
42099;DHT22;27758;55.900;8.516;2023-04-25T08:15:14;7.40;99.90
42099;DHT22;27758;55.900;8.516;2023-04-25T08:17:40;7.40;99.90
42099;DHT22;27758;55.900;8.516;2023-04-25T08:20:07;7.40;99.90
42099;DHT22;27758;55.900;8.516;2023-04-25T08:22:32;7.30;99.90
42099;DHT22;27758;55.900;8.516;2023-04-25T08:24:59;7.30;99.90
42099;DHT22;27758;55.900;8.516;2023-04-25T08:27:25;7.30;99.90
42099;DHT22;27758;55.900;8.516;2023-04-25T08:29:51;7.50;99.90
42099;DHT22;27758;55.900;8.516;2023-04-25T08:32:16;7.80;99.90
42099;DHT22;27758;55.900;8.516;2023-04-25T08:34:42;8.10;99.90
42099;DHT22;27758;55.900;8.516;2023-04-25T08:37:09;8.50;99.90
42099;DHT22;27758;55.900;8.516;2023-04-25T08:39:36;8.90;99.90
42099;DHT22;27758;55.900;8.516;2023-04-25T08:42:06;8.70;99.90
42099;DHT22;27758;55.900;8.516;2023-04-25T08:44:36;8.50;99.90
42099;DHT22;27758;55.900;8.516;2023-04-25T08:47:05;8.60;99.90
42099;DHT22;27758;55.900;8.516;2023-04-25T08:49:34;8.90;99.90
42099;DHT22;27758;55.900;8.516;2023-04-25T08:52:02;9.10;99.90
42099;DHT22;27758;55.900;8.516;2023-04-25T08:54:31;9.00;99.90
42099;DHT22;27758;55.900;8.516;2023-04-25T08:57:00;9.10;99.90
42099;DHT22;27758;55.900;8.516;2023-04-25T08:59:30;9.20;99.90
42099;DHT22;27758;55.900;8.516;2023-04-25T09:01:57;9.10;99.90
42099;DHT22;27758;55.900;8.516;2023-04-25T09:04:22;8.80;99.90
42099;DHT22;27758;55.900;8.516;2023-04-25T09:06:48;8.50;99.90
42099;DHT22;27758;55.900;8.516;2023-04-25T09:09:14;8.40;99.90
42099;DHT22;27758;55.900;8.516;2023-04-25T09:11:40;8.50;99.90
42099;DHT22;27758;55.900;8.516;2023-04-25T09:14:19;8.50;99.90
42099;DHT22;27758;55.900;8.516;2023-04-25T09:19:33;8.10;99.90
42099;DHT22;27758;55.900;8.516;2023-04-25T09:22:02;8.00;99.90
42099;DHT22;27758;55.900;8.516;2023-04-25T09:24:36;8.00;99.90
42099;DHT22;27758;55.900;8.516;2023-04-25T09:27:07;8.10;99.90
42099;DHT22;27758;55.900;8.516;2023-04-25T09:29:39;8.00;99.90
42099;DHT22;27758;55.900;8.516;2023-04-25T09:32:19;7.80;99.90
42099;DHT22;27758;55.900;8.516;2023-04-25T09:34:50;7.70;99.90
42099;DHT22;27758;55.900;8.516;2023-04-25T09:37:24;7.70;99.90
42099;DHT22;27758;55.900;8.516;2023-04-25T09:39:53;7.80;99.90
42099;DHT22;27758;55.900;8.516;2023-04-25T09:42:25;8.10;99.90
42099;DHT22;27758;55.900;8.516;2023-04-25T09:44:56;8.30;99.90
42099;DHT22;27758;55.900;8.516;2023-04-25T09:47:25;8.70;99.90
42099;DHT22;27758;55.900;8.516;2023-04-25T09:49:53;9.10;99.90
42099;DHT22;27758;55.900;8.516;2023-04-25T09:52:24;8.80;99.90
42099;DHT22;27758;55.900;8.516;2023-04-25T09:54:51;8.30;99.90
42099;DHT22;27758;55.900;8.516;2023-04-25T09:57:24;7.90;99.90
42099;DHT22;27758;55.900;8.516;2023-04-25T09:59:51;7.80;99.90
42099;DHT22;27758;55.900;8.516;2023-04-25T10:02:19;7.70;99.90
42099;DHT22;27758;55.900;8.516;2023-04-25T10:04:52;7.70;99.90
42099;DHT22;27758;55.900;8.516;2023-04-25T10:07:20;7.80;99.90
42099;DHT22;27758;55.900;8.516;2023-04-25T10:10:11;7.80;99.90
42099;DHT22;27758;55.900;8.516;2023-04-25T10:12:37;8.10;99.90
42099;DHT22;27758;55.900;8.516;2023-04-25T10:15:06;8.30;99.90
42099;DHT22;27758;55.900;8.516;2023-04-25T10:17:34;8.60;99.90
42099;DHT22;27758;55.900;8.516;2023-04-25T10:20:04;8.60;99.90
42099;DHT22;27758;55.900;8.516;2023-04-25T10:22:38;8.50;99.90
42099;DHT22;27758;55.900;8.516;2023-04-25T10:25:06;8.50;99.90
42099;DHT22;27758;55.900;8.516;2023-04-25T10:27:32;8.60;99.90
42099;DHT22;27758;55.900;8.516;2023-04-25T10:32:37;8.80;99.90
42099;DHT22;27758;55.900;8.516;2023-04-25T10:37:38;8.90;99.90
42099;DHT22;27758;55.900;8.516;2023-04-25T10:40:09;8.90;99.90
42099;DHT22;27758;55.900;8.516;2023-04-25T10:42:35;8.70;99.90
42099;DHT22;27758;55.900;8.516;2023-04-25T10:45:07;8.40;99.90
42099;DHT22;27758;55.900;8.516;2023-04-25T10:47:36;8.20;99.90
42099;DHT22;27758;55.900;8.516;2023-04-25T10:50:08;8.10;99.90
42099;DHT22;27758;55.900;8.516;2023-04-25T10:52:34;8.00;99.90
42099;DHT22;27758;55.900;8.516;2023-04-25T10:55:03;7.80;99.90
42099;DHT22;27758;55.900;8.516;2023-04-25T11:00:06;7.60;99.90
42099;DHT22;27758;55.900;8.516;2023-04-25T11:02:44;7.60;99.90
42099;DHT22;27758;55.900;8.516;2023-04-25T11:05:34;7.70;99.90
42099;DHT22;27758;55.900;8.516;2023-04-25T11:08:01;7.70;99.90
42099;DHT22;27758;55.900;8.516;2023-04-25T11:10:29;7.70;99.90
42099;DHT22;27758;55.900;8.516;2023-04-25T11:12:55;7.70;99.90
42099;DHT22;27758;55.900;8.516;2023-04-25T11:15:21;7.70;99.90
42099;DHT22;27758;55.900;8.516;2023-04-25T11:17:47;7.70;99.90
42099;DHT22;27758;55.900;8.516;2023-04-25T11:20:13;7.80;99.90
42099;DHT22;27758;55.900;8.516;2023-04-25T11:22:41;7.70;99.90
42099;DHT22;27758;55.900;8.516;2023-04-25T11:25:11;7.80;99.90
42099;DHT22;27758;55.900;8.516;2023-04-25T11:27:53;7.90;99.90
42099;DHT22;27758;55.900;8.516;2023-04-25T11:30:20;7.90;99.90
42099;DHT22;27758;55.900;8.516;2023-04-25T11:32:46;7.70;99.90
42099;DHT22;27758;55.900;8.516;2023-04-25T11:35:13;7.70;99.90
42099;DHT22;27758;55.900;8.516;2023-04-25T11:37:39;7.60;99.90
42099;DHT22;27758;55.900;8.516;2023-04-25T11:40:06;7.60;99.90
42099;DHT22;27758;55.900;8.516;2023-04-25T11:42:32;7.50;99.90
42099;DHT22;27758;55.900;8.516;2023-04-25T11:44:59;7.40;99.90
42099;DHT22;27758;55.900;8.516;2023-04-25T11:47:32;7.40;99.90
42099;DHT22;27758;55.900;8.516;2023-04-25T11:49:59;7.40;99.90
42099;DHT22;27758;55.900;8.516;2023-04-25T11:52:44;7.40;99.90
42099;DHT22;27758;55.900;8.516;2023-04-25T11:55:17;7.50;99.90
42099;DHT22;27758;55.900;8.516;2023-04-25T11:57:44;7.40;99.90
42099;DHT22;27758;55.900;8.516;2023-04-25T12:00:15;7.40;99.90
42099;DHT22;27758;55.900;8.516;2023-04-25T12:02:44;7.50;99.90
42099;DHT22;27758;55.900;8.516;2023-04-25T12:05:11;7.50;99.90
42099;DHT22;27758;55.900;8.516;2023-04-25T12:07:37;7.60;99.90
42099;DHT22;27758;55.900;8.516;2023-04-25T12:10:11;7.70;99.90
42099;DHT22;27758;55.900;8.516;2023-04-25T12:12:41;7.90;99.90
42099;DHT22;27758;55.900;8.516;2023-04-25T12:15:25;8.10;99.90
42099;DHT22;27758;55.900;8.516;2023-04-25T12:17:55;8.70;99.90
42099;DHT22;27758;55.900;8.516;2023-04-25T12:20:24;8.80;99.90
42099;DHT22;27758;55.900;8.516;2023-04-25T12:22:51;8.50;99.90
42099;DHT22;27758;55.900;8.516;2023-04-25T12:25:40;8.20;99.90
42099;DHT22;27758;55.900;8.516;2023-04-25T12:28:18;8.10;99.90
42099;DHT22;27758;55.900;8.516;2023-04-25T12:33:18;8.00;99.90
42099;DHT22;27758;55.900;8.516;2023-04-25T12:35:43;7.90;99.90
42099;DHT22;27758;55.900;8.516;2023-04-25T12:38:09;7.80;99.90
42099;DHT22;27758;55.900;8.516;2023-04-25T12:40:35;7.80;99.90
42099;DHT22;27758;55.900;8.516;2023-04-25T12:43:00;7.80;99.90
42099;DHT22;27758;55.900;8.516;2023-04-25T12:45:26;7.70;99.90
42099;DHT22;27758;55.900;8.516;2023-04-25T12:47:52;7.60;99.90
42099;DHT22;27758;55.900;8.516;2023-04-25T12:50:18;7.60;99.90
42099;DHT22;27758;55.900;8.516;2023-04-25T12:52:43;7.60;99.90
42099;DHT22;27758;55.900;8.516;2023-04-25T12:55:09;7.60;99.90
42099;DHT22;27758;55.900;8.516;2023-04-25T12:57:35;7.60;99.90
42099;DHT22;27758;55.900;8.516;2023-04-25T13:00:00;7.80;99.90
42099;DHT22;27758;55.900;8.516;2023-04-25T13:02:27;7.90;99.90
42099;DHT22;27758;55.900;8.516;2023-04-25T13:04:52;8.00;99.90
42099;DHT22;27758;55.900;8.516;2023-04-25T13:07:18;8.20;99.90
42099;DHT22;27758;55.900;8.516;2023-04-25T13:09:43;8.20;99.90
42099;DHT22;27758;55.900;8.516;2023-04-25T13:12:09;8.10;99.90
42099;DHT22;27758;55.900;8.516;2023-04-25T13:14:35;8.00;99.90
42099;DHT22;27758;55.900;8.516;2023-04-25T13:17:00;8.00;99.90
42099;DHT22;27758;55.900;8.516;2023-04-25T13:19:26;8.10;99.90
42099;DHT22;27758;55.900;8.516;2023-04-25T13:21:52;8.30;99.90
42099;DHT22;27758;55.900;8.516;2023-04-25T13:24:17;8.60;99.90
42099;DHT22;27758;55.900;8.516;2023-04-25T13:26:43;9.10;99.90
42099;DHT22;27758;55.900;8.516;2023-04-25T13:29:09;9.40;99.90
42099;DHT22;27758;55.900;8.516;2023-04-25T13:31:35;9.30;99.90
42099;DHT22;27758;55.900;8.516;2023-04-25T13:34:00;9.10;99.90
42099;DHT22;27758;55.900;8.516;2023-04-25T13:36:26;9.00;99.90
42099;DHT22;27758;55.900;8.516;2023-04-25T13:39:04;9.00;99.90
42099;DHT22;27758;55.900;8.516;2023-04-25T13:41:30;9.00;99.90
42099;DHT22;27758;55.900;8.516;2023-04-25T13:43:56;8.90;99.90
42099;DHT22;27758;55.900;8.516;2023-04-25T13:46:21;8.70;99.90
42099;DHT22;27758;55.900;8.516;2023-04-25T13:48:47;8.70;99.90
42099;DHT22;27758;55.900;8.516;2023-04-25T13:51:15;8.50;99.90
42099;DHT22;27758;55.900;8.516;2023-04-25T13:53:41;8.40;99.90
42099;DHT22;27758;55.900;8.516;2023-04-25T13:56:07;8.30;99.90
42099;DHT22;27758;55.900;8.516;2023-04-25T13:58:32;8.30;99.90
42099;DHT22;27758;55.900;8.516;2023-04-25T14:00:58;8.60;99.90
42099;DHT22;27758;55.900;8.516;2023-04-25T14:03:24;8.70;99.90
42099;DHT22;27758;55.900;8.516;2023-04-25T14:05:51;8.60;99.90
42099;DHT22;27758;55.900;8.516;2023-04-25T14:08:17;8.30;99.90
42099;DHT22;27758;55.900;8.516;2023-04-25T14:10:42;8.10;99.90
42099;DHT22;27758;55.900;8.516;2023-04-25T14:13:08;8.00;99.90
42099;DHT22;27758;55.900;8.516;2023-04-25T14:15:34;7.90;99.90
42099;DHT22;27758;55.900;8.516;2023-04-25T14:18:00;7.80;99.90
42099;DHT22;27758;55.900;8.516;2023-04-25T14:20:26;7.90;99.90
42099;DHT22;27758;55.900;8.516;2023-04-25T14:22:52;8.00;99.90
42099;DHT22;27758;55.900;8.516;2023-04-25T14:25:20;8.00;99.90
42099;DHT22;27758;55.900;8.516;2023-04-25T14:27:46;7.90;99.90
42099;DHT22;27758;55.900;8.516;2023-04-25T14:30:16;7.90;99.90
42099;DHT22;27758;55.900;8.516;2023-04-25T14:32:41;7.90;99.90
42099;DHT22;27758;55.900;8.516;2023-04-25T14:35:07;7.90;99.90
42099;DHT22;27758;55.900;8.516;2023-04-25T14:37:33;7.90;99.90
42099;DHT22;27758;55.900;8.516;2023-04-25T14:39:59;8.00;99.90
42099;DHT22;27758;55.900;8.516;2023-04-25T14:42:25;8.10;99.90
42099;DHT22;27758;55.900;8.516;2023-04-25T14:44:51;8.30;99.90
42099;DHT22;27758;55.900;8.516;2023-04-25T14:47:17;8.20;99.90
42099;DHT22;27758;55.900;8.516;2023-04-25T14:49:43;8.10;99.90
42099;DHT22;27758;55.900;8.516;2023-04-25T14:52:09;7.90;99.90
42099;DHT22;27758;55.900;8.516;2023-04-25T14:54:35;7.80;99.90
42099;DHT22;27758;55.900;8.516;2023-04-25T14:57:01;7.80;99.90
42099;DHT22;27758;55.900;8.516;2023-04-25T14:59:27;8.00;99.90
42099;DHT22;27758;55.900;8.516;2023-04-25T15:01:53;8.00;99.90
42099;DHT22;27758;55.900;8.516;2023-04-25T15:04:19;8.00;99.90
42099;DHT22;27758;55.900;8.516;2023-04-25T15:06:44;8.00;99.90
42099;DHT22;27758;55.900;8.516;2023-04-25T15:09:11;8.10;99.90
42099;DHT22;27758;55.900;8.516;2023-04-25T15:11:37;8.40;99.90
42099;DHT22;27758;55.900;8.516;2023-04-25T15:14:03;8.90;99.90
42099;DHT22;27758;55.900;8.516;2023-04-25T15:16:30;9.00;99.90
42099;DHT22;27758;55.900;8.516;2023-04-25T15:18:57;8.80;99.90
42099;DHT22;27758;55.900;8.516;2023-04-25T15:21:23;8.50;99.90
42099;DHT22;27758;55.900;8.516;2023-04-25T15:23:49;8.40;99.90
42099;DHT22;27758;55.900;8.516;2023-04-25T15:26:15;8.20;99.90
42099;DHT22;27758;55.900;8.516;2023-04-25T15:28:41;8.10;99.90
42099;DHT22;27758;55.900;8.516;2023-04-25T15:31:07;8.10;99.90
42099;DHT22;27758;55.900;8.516;2023-04-25T15:33:32;8.10;99.90
42099;DHT22;27758;55.900;8.516;2023-04-25T15:35:58;8.00;99.90
42099;DHT22;27758;55.900;8.516;2023-04-25T15:38:24;7.80;99.90
42099;DHT22;27758;55.900;8.516;2023-04-25T15:40:51;7.70;99.90
42099;DHT22;27758;55.900;8.516;2023-04-25T15:43:17;7.60;99.90
42099;DHT22;27758;55.900;8.516;2023-04-25T15:45:42;7.50;99.90
42099;DHT22;27758;55.900;8.516;2023-04-25T15:48:08;7.70;99.90
42099;DHT22;27758;55.900;8.516;2023-04-25T15:50:34;7.80;99.90
42099;DHT22;27758;55.900;8.516;2023-04-25T15:53:00;7.80;99.90
42099;DHT22;27758;55.900;8.516;2023-04-25T15:55:26;7.90;99.90